Tiempo atmosférico en la estación meteorológica de Fisterra, A Coruña (230 m.)



Fecha
DESCASC
Temp. máxima en grados centígrados (hora)
DESCASC
Temp. mínima en grados centígrados (hora)
DESCASC
Temp. media en grados centígrados
DESCASC
Racha de viento máxima en m/sg (hora)
DESCASC
Velocidad máxima media en intervalos de 10 minutos(hora)
DESCASC
Precipitaciones diarias en mm
DESCASC
Precipitaciones de 00:00 a 06:00 en mm
DESCASC
Precipitaciones de 06:00 a 12:00 en mm
DESCASC
Precipitaciones de 12:00 a 18:00 en mm
DESCASC
Precipitaciones de 18:00 a 24:00 en mm
DESCASC
22-04-2019 14.5 (02:20) 8.9 (23:59) 11.7 17.78 (18:40) 11.94 (19:10) 10.6 0 0 0.4 10.2
21-04-2019 20.9 (13:00) 12.5 (03:00) 16.7 17.22 (02:40) 10.56 (00:10) 0 0 0 0 0
20-04-2019 21.4 (14:50) 12.3 (08:30) 16.8 19.72 (22:20) 12.22 (21:40) 0 0 0 0 0
19-04-2019 17.3 (18:40) 10.7 (04:00) 14 18.33 (07:30) 13.33 (07:30) 0 0 0 0 0
18-04-2019 17.3 (15:00) 10.8 (00:00) 14 13.89 (07:40) 8.89 (21:50) 1.2 1.2 0 0 0
17-04-2019 13.5 (03:50) 11.2 (00:00) 12.3 22.5 (13:30) 11.39 (13:30) 4.8 0 0.6 3.4 0.8
16-04-2019 15.5 (16:40) 10.5 (00:00) 13 16.11 (07:00) 9.17 (03:00) 0 0 0 0 0
15-04-2019 14.6 (19:20) 10.4 (00:00) 12.5 21.67 (07:50) 15.83 (07:50) 3.6 0.4 3.2 0 0
14-04-2019 14.5 (16:20) 12.7 (00:00) 13.6 16.39 (20:00) 9.44 (20:00) 3.2 1.2 1 0.4 0.6
13-04-2019 12.7 (23:10) 10.8 (00:00) 11.8 16.11 (17:00) 9.72 (17:00) 3.6 0 0 2.2 1.4
12-04-2019 15.6 (17:50) 10.1 (00:00) 12.9 8.06 (00:30) 6.11 (00:30) 0 0 0 0 0
11-04-2019 12.3 (14:00) 8.4 (00:00) 10.3 13.33 (17:10) 8.89 (17:10) 0 0 0 0 0
10-04-2019 12.9 (17:30) 9.3 (00:00) 11.1 16.11 (05:20) 9.17 (05:40) 0.2 0.2 0 0 0
09-04-2019 12 (16:50) 7.6 (00:00) 9.8 22.22 (11:50) 12.78 (12:00) 7.6 1.2 0.4 1.4 4.6
08-04-2019 13.2 (15:10) 8.2 (00:00) 10.7 26.11 (17:50) 18.61 (19:20) 4 0.2 0 2 1.8
07-04-2019 12.6 (18:40) 6.7 (00:00) 9.7 20.28 (15:20) 11.11 (15:20) 15.6 0 0 10.8 4.8
06-04-2019 11.7 (17:20) 6.7 (00:00) 9.2 28.61 (03:10) 18.89 (03:10) 1.6 0.6 0.2 0.2 0.6
05-04-2019 11.7 (18:40) 6.1 (00:00) 8.9 25.28 (23:50) 15 (08:50) 2.4 0 0.4 0.6 1.4
04-04-2019 9.5 (15:30) 6.8 (00:00) 8.2 20.83 (16:10) 15.28 (16:10) 13.8 0 1.2 12.2 0.4
03-04-2019 10.3 (17:10) 6.8 (00:00) 8.6 21.11 (21:40) 11.67 (12:20) 0 0 0 0 0
02-04-2019 12.1 (17:10) 9 (00:00) 10.6 15.83 (01:10) 11.39 (01:20) 0 0 0 0 0
01-04-2019 20.2 (15:20) 10.4 (00:00) 15.3 10.28 (00:20) 7.78 (00:10) 0 0 0 0 0
31-03-2019 17.3 (19:20) 10.1 (00:00) 13.7 13.33 (15:50) 9.44 (15:50) 0 0 0 0 0
30-03-2019 15.8 (14:20) 9.6 (00:00) 12.7 10.28 (06:10) 7.78 (06:10) 0 0 0 0 0
29-03-2019 21.6 (14:20) 11.7 (00:00) 16.7 6.11 (23:00) 5.28 (22:50) 0 0 0 0 0
28-03-2019 21.7 (13:00) 12.6 (00:00) 17.2 15.28 (00:10) 11.11 (00:10) 0 0 0 0 0
27-03-2019 22.2 (13:10) 11.9 (00:00) 17.1 16.11 (23:40) 11.39 (23:59) 0 0 0 0 0
26-03-2019 21.3 (16:10) 8.8 (00:00) 15 22.5 (00:10) 13.89 (00:10) 0 0 0 0 0
25-03-2019 21.4 (14:50) 9.8 (00:00) 15.6 24.72 (23:10) 14.17 (23:00) 0 0 0 0 0

Gráficas

Temp. máximas Temp. mínimas Temp. medias Precipitaciones Rachas de viento máximas Velocidades máximas media en intervalos de 10 minutos

Datos horarios

Fecha y hora oficial Temperatura (ºC) Velocidad del viento (km/h) Dirección del viento Racha (km/h) Dirección de racha Precipitación (mm) Presión (hPa) Tendencia (hPa) Humedad (%)
2019-04-23 23:00:00 8.8 32 Sudoeste 55 Sudoeste 0.2 970.8 0.2 78
2019-04-23 22:00:00 9.2 28 Oeste 40 Oeste 0 970.8 0.2 72
2019-04-23 21:00:00 8.6 24 Sudoeste 43 Sudoeste 0 970.5 0.2 75
2019-04-23 20:00:00 9.7 21 Oeste 46 Oeste 0 970.6 0.3 73
2019-04-23 19:00:00 10.7 27 Oeste 41 Oeste 0 970.6 0.4 67
2019-04-23 18:00:00 11.9 28 Oeste 44 Oeste 0 970.3 0.5 63
2019-04-23 17:00:00 11.6 33 Oeste 46 Oeste 0 970.3 0.8 65
2019-04-23 16:00:00 11.5 23 Noroeste 41 Noroeste 0 970.2 1 61
2019-04-23 15:00:00 11.4 26 Noroeste 47 Noroeste 0 969.8 1.5 65
2019-04-23 14:00:00 11 27 Noroeste 49 Noroeste 0 969.5 2.2 71
2019-04-23 13:00:00 10.3 25 Noroeste 60 Norte 0 969.2 2.2 71
2019-04-23 12:00:00 9.6 28 Noroeste 61 Noroeste 0 968.3 1.6 77
2019-04-23 11:00:00 8.8 24 Noroeste 67 Norte 1.2 967.3 1.4 82
2019-04-23 10:00:00 7.2 39 Norte 68 Norte 2 967 1.9 91
2019-04-23 09:00:00 6.8 22 Noroeste 64 Noroeste 1.6 966.7 1 91
2019-04-23 08:00:00 7.4 28 Noroeste 58 Noroeste 0 965.9 0 90
2019-04-23 07:00:00 7.9 21 Noroeste 64 Noroeste 0.4 965.1 -0.9 91
2019-04-23 06:00:00 8.1 19 Oeste 49 Oeste 0.4 965.7 -0.9 88
2019-04-23 05:00:00 8.3 25 Sudoeste 38 Oeste 0 965.9 -0.9 87
2019-04-23 04:00:00 8.3 27 Sudoeste 42 Oeste 0 966 -1.4 87
2019-04-23 03:00:00 8.9 25 Oeste 37 Oeste 0 966.6 -0.8 88
2019-04-23 02:00:00 9 20 Noroeste 33 Noroeste 0.4 966.8 -0.8 91
2019-04-23 01:00:00 8.6 19 Oeste 32 Oeste 0.4 967.4 -0.5 91
2019-04-23 00:00:00 9 22 Oeste 40 Sudoeste 2 967.4 -0.9 93
2019-04-22 23:00:00 9.2 17 Sur 30 Sudoeste 1.6 967.6 -0.8 93
2019-04-22 22:00:00 9 13 Sur 25 Oeste 0.8 967.9 0.3 93
2019-04-22 21:00:00 9.4 12 Oeste 27 Noroeste 1.2 968.3 -0.1 93
2019-04-22 20:00:00 9.9 16 Noroeste 62 Sudoeste 3.2 968.4 -1.1 93
2019-04-22 19:00:00 11.5 31 Sur 64 Sudoeste 1.4 967.6 -3.3 93
2019-04-22 18:00:00 11.8 36 Sur 57 Sudoeste 0.2 968.4 -3.1 92
2019-04-22 17:00:00 12.1 27 Sur 55 Sudoeste 0.2 969.5 -3.6 91
2019-04-22 16:00:00 12.6 27 Sur 45 Sur 0 970.9 -3.2 84
2019-04-22 15:00:00 12.8 26 Sur 36 Sur 0 971.5 -3.1 84
2019-04-22 14:00:00 12.2 15 Sur 28 Sudoeste 0 973.1 -1.8 88
2019-04-22 13:00:00 12.5 13 Sur 23 Sudoeste 0 974.1 -1.1 83
2019-04-22 12:00:00 13.3 14 Sudoeste 24 Oeste 0 974.6 -1.2 82
2019-04-22 11:00:00 13.1 9 Sudoeste 19 Sudeste 0 974.9 -1 79
2019-04-22 10:00:00 13.5 9 Sudeste 13 Sur 0 975.2 -1.1 71
2019-04-22 09:00:00 12.5 8 Este 16 Nordeste 0 975.8 -1.3 74
2019-04-22 08:00:00 13 14 Nordeste 22 Nordeste 0 975.9 -2.4 57
2019-04-22 07:00:00 12.3 15 Nordeste 23 Nordeste 0 976.3 -2.9 66
2019-04-22 06:00:00 12.8 17 Nordeste 22 Nordeste 0 977.1 -2.9 59
2019-04-22 05:00:00 12.6 15 Nordeste 24 Este 0 978.3 -2.7 64
2019-04-22 04:00:00 11.2 19 Nordeste 25 Nordeste 0 979.2 -2.5 92
2019-04-22 03:00:00 11.9 16 Nordeste 29 Este 0 980 -2.2 76
2019-04-22 02:00:00 14.2 23 Este 32 Este 0 981 -1.7 57
2019-04-22 01:00:00 14.2 23 Este 42 Nordeste 0 981.7 -1.5 62
2019-04-22 00:00:00 13.3 31 Nordeste 44 Nordeste 0 982.2 -1.1 74
2019-04-21 23:00:00 13.8 36 Nordeste 44 Nordeste 0 982.7 -1.1 76
2019-04-21 22:00:00 14.5 27 Norte 41 Nordeste 0 983.2 -0.8 75
2019-04-21 21:00:00 15.9 32 Nordeste 46 Nordeste 0 983.3 -1.1 65
2019-04-21 20:00:00 16 26 Norte 45 Nordeste 0 983.8 -1.4 71
2019-04-21 19:00:00 16.6 28 Norte 49 Norte 0 984 -1.6 71
2019-04-21 18:00:00 16 33 Norte 49 Norte 0 984.4 -1.6 77
2019-04-21 17:00:00 15.3 27 Norte 51 Nordeste 0 985.2 -1.9 83
2019-04-21 16:00:00 15.3 30 Nordeste 48 Nordeste 0 985.6 -2.5 79
2019-04-21 15:00:00 15.3 29 Nordeste 46 Nordeste 0 986 -2.6 75
2019-04-21 14:00:00 17.4 26 Nordeste 42 Nordeste 0 987.1 -1.5 68
2019-04-21 13:00:00 20.3 18 Nordeste 39 Este 0 988.1 -0.5 47
2019-04-21 12:00:00 19.9 18 Este 42 Nordeste 0 988.6 0 45
2019-04-21 11:00:00 18 27 Este 46 Este 0 988.6 0.1 47
2019-04-21 10:00:00 16.6 33 Este 53 Este 0 988.6 0.2 47
2019-04-21 09:00:00 15.3 35 Este 50 Este 0 988.6 0 50
2019-04-21 08:00:00 14.5 30 Este 54 Nordeste 0 988.5 -0.5 53
2019-04-21 07:00:00 14.5 32 Nordeste 54 Nordeste 0 988.4 -0.7 54
2019-04-21 06:00:00 13.8 29 Nordeste 49 Nordeste 0 988.6 -1.3 61
2019-04-21 05:00:00 13.6 29 Nordeste 53 Nordeste 0 989 -1.4 65
2019-04-21 04:00:00 12.7 34 Nordeste 55 Nordeste 0 989.1 -1.8 76
2019-04-21 03:00:00 12.6 30 Nordeste 62 Nordeste 0 989.9 -1.3 78
2019-04-21 02:00:00 13.3 33 Nordeste 60 Nordeste 0 990.4 -1.1 75
2019-04-21 01:00:00 13.6 35 Nordeste 58 Nordeste 0 990.9 -0.4 74
2019-04-21 00:00:00 14 36 Nordeste 66 Nordeste 0 991.2 0.3 72
2019-04-20 23:00:00 14.5 40 Nordeste 71 Nordeste 0 991.5 0.6 70
2019-04-20 22:00:00 14.3 41 Nordeste 60 Nordeste 0 991.3 0.3 73
2019-04-20 21:00:00 15.5 41 Nordeste 59 Norte 0 990.9 -0.1 67
2019-04-20 20:00:00 16.9 31 Nordeste 59 Norte 0 990.9 -0.2 61
2019-04-20 19:00:00 17.7 24 Nordeste 43 Norte 0 991 -0.6 62
2019-04-20 18:00:00 18.9 24 Norte 51 Nordeste 0 991 -0.9 59
2019-04-20 17:00:00 17.1 26 Norte 46 Nordeste 0 991.1 -1.2 68
2019-04-20 16:00:00 17.6 24 Nordeste 50 Nordeste 0 991.6 -0.9 65
2019-04-20 15:00:00 20.7 23 Nordeste 62 Nordeste 0 991.9 -1 47
2019-04-20 14:00:00 21 29 Nordeste 55 Nordeste 0 992.3 -0.7 45
2019-04-20 13:00:00 19.9 28 Nordeste 48 Este 0 992.5 -0.6 48
2019-04-20 12:00:00 17.9 22 Nordeste 44 Nordeste 0 992.9 -0.6 55
2019-04-20 11:00:00 15.6 18 Nordeste 37 Nordeste 0 993 -0.2 62
2019-04-20 10:00:00 14.3 31 Nordeste 50 Este 0 993.1 -0.1 61
2019-04-20 09:00:00 13 28 Nordeste 60 Nordeste 0 993.5 0.4 66
2019-04-20 08:00:00 12.7 37 Nordeste 57 Nordeste 0 993.2 0 65
2019-04-20 07:00:00 13.3 35 Nordeste 46 Este 0 993.2 -0.3 62
2019-04-20 06:00:00 17.6 26 Este 48 Este 0 993.1 -0.9 37
2019-04-20 05:00:00 16.2 18 Nordeste 45 Este 0 993.2 -0.8 45
2019-04-20 04:00:00 16.5 11 Sudeste 61 Este 0 993.5 -0.4 46
2019-04-20 03:00:00 17 28 Este 62 Este 0 994 0.4 41
2019-04-20 02:00:00 16.4 35 Este 67 Este 0 994 0.7 46
2019-04-20 01:00:00 15.6 36 Este 69 Este 0 993.9 1 55
2019-04-20 00:00:00 15.3 34 Este 60 Este 0 993.6 1.8 68
2019-04-19 23:00:00 14.7 41 Este 55 Este 0 993.3 1.8 70
2019-04-19 22:00:00 13.9 27 Este 46 Este 0 992.9 1.9 79
2019-04-19 21:00:00 15.7 32 Nordeste 51 Nordeste 0 991.8 0.8 69
2019-04-19 20:00:00 16 33 Nordeste 51 Nordeste 0 991.5 0.5 70
2019-04-19 19:00:00 17.1 25 Nordeste 45 Nordeste 0 991 0.2 70
2019-04-19 18:00:00 17 16 Norte 39 Nordeste 0 991 0.3 75
2019-04-19 17:00:00 15.7 22 Nordeste 43 Norte 0 991 0 80
2019-04-19 16:00:00 14.9 26 Norte 45 Norte 0 990.8 -0.2 84
2019-04-19 15:00:00 15.2 24 Norte 39 Norte 0 990.7 0.6 81
2019-04-19 14:00:00 14.1 18 Norte 42 Nordeste 0 991 1.6 85
2019-04-19 13:00:00 14.2 23 Nordeste 55 Nordeste 0 991 1 83
2019-04-19 12:00:00 13.4 30 Nordeste 62 Nordeste 0 990.1 0.4 86
2019-04-19 11:00:00 12.8 37 Nordeste 62 Nordeste 0 989.4 0.6 88
2019-04-19 10:00:00 11.8 32 Nordeste 63 Nordeste 0 990 1.8 90
2019-04-19 09:00:00 11.5 41 Nordeste 65 Nordeste 0 989.7 1.1 92
2019-04-19 08:00:00 11.7 37 Nordeste 66 Nordeste 0 988.8 -0.1 91
2019-04-19 07:00:00 11.5 39 Nordeste 58 Nordeste 0 988.2 -0.9 92
2019-04-19 06:00:00 11.4 37 Nordeste 51 Nordeste 0 988.6 -0.4 91
2019-04-19 05:00:00 11.4 30 Nordeste 48 Nordeste 0 988.9 -0.6 91
2019-04-19 04:00:00 10.7 26 Nordeste 44 Nordeste 0 989.1 -0.2 92
2019-04-19 03:00:00 11 26 Nordeste 40 Nordeste 0 989 -0.4 92
2019-04-19 02:00:00 11 31 Nordeste 43 Nordeste 0 989.5 0.4 93
2019-04-19 01:00:00 11.1 38 Nordeste 48 Nordeste 0 989.3 0.9 92
2019-04-19 00:00:00 11.4 31 Nordeste 42 Nordeste 0 989.4 1.7 92
2019-04-18 23:00:00 11.6 29 Nordeste 46 Nordeste 0 989.1 2.1 90
2019-04-18 22:00:00 11.6 32 Nordeste 45 Nordeste 0 988.4 1.8 86
2019-04-18 21:00:00 12.6 28 Nordeste 44 Nordeste 0 987.7 1.4 80
2019-04-18 20:00:00 13.8 28 Nordeste 45 Nordeste 0 987 0.6 72
2019-04-18 19:00:00 13.9 25 Norte 42 Norte 0 986.6 -0.1 76
2019-04-18 18:00:00 14.1 21 Norte 34 Norte 0 986.3 -0.4 73
2019-04-18 17:00:00 14 14 Norte 26 Nordeste 0 986.4 0.4 76
2019-04-18 16:00:00 13 16 Norte 26 Norte 0 986.7 0.8 83
2019-04-18 15:00:00 17.3 10 Sudoeste 23 Sudoeste 0 986.7 1.6 72
2019-04-18 14:00:00 16.3 14 Sudoeste 30 Sudeste 0 986 1.3 76
2019-04-18 13:00:00 15.3 11 Sur 30 Sur 0 985.9 1.8 78
2019-04-18 12:00:00 13.9 15 Sur 37 Sur 0 985.1 1.6 81
2019-04-18 11:00:00 12.7 17 Sudeste 37 Sudeste 0 984.7 2.1 85
2019-04-18 10:00:00 11.3 17 Sudeste 38 Sudeste 0 984.1 2.5 92
2019-04-18 09:00:00 11 18 Sur 48 Sur 0 983.5 2.2 93
2019-04-18 08:00:00 11 20 Sur 50 Sur 0 982.6 1.6 94
2019-04-18 07:00:00 11 21 Sur 46 Sur 0 981.6 0.7 94
2019-04-18 06:00:00 11.2 25 Sur 49 Sur 0 981.3 0.1 94
2019-04-18 05:00:00 11 28 Sur 48 Sur 0 981 0 94
2019-04-18 04:00:00 11.5 23 Sur 48 Sur 0.4 980.9 0.2 94
2019-04-18 03:00:00 11.5 19 Sudeste 48 Sur 0.8 981.2 0.7 94
2019-04-18 02:00:00 12 23 Sur 46 Sur 0 981 1 94
2019-04-18 01:00:00 12 20 Sur 47 Sur 0 980.7 1.2 94
2019-04-18 00:00:00 11.9 23 Sur 49 Sur 0 980.5 1.9 94
2019-04-17 23:00:00 11.8 28 Sur 54 Sur 0 980 1.6 94
2019-04-17 22:00:00 11.8 27 Sur 57 Sur 0 979.5 1.3 94
2019-04-17 21:00:00 11.9 29 Sur 53 Sur 0.2 978.6 0.5 94
2019-04-17 20:00:00 11.9 26 Sur 51 Sudeste 0.2 978.4 0.4 94
2019-04-17 19:00:00 12 27 Sur 50 Sur 0.4 978.2 0.2 94
2019-04-17 18:00:00 12 28 Sur 51 Sur 1 978.1 0.2 94
2019-04-17 17:00:00 12.1 31 Sur 54 Sur 0.4 978 0.6 93
2019-04-17 16:00:00 12.1 28 Sur 55 Sur 0.6 978 0.8 93
2019-04-17 15:00:00 11.7 28 Sur 64 Sur 0.2 977.9 0.6 93
2019-04-17 14:00:00 11.2 40 Sur 81 Sur 1 977.4 0.2 92
2019-04-17 13:00:00 11.7 31 Sur 70 Sur 0.2 977.2 -0.1 88
2019-04-17 12:00:00 12.6 33 Sudeste 68 Sur 0 977.3 0 83
2019-04-17 11:00:00 11.4 34 Sur 76 Sur 0.4 977.2 -0.2 90
2019-04-17 10:00:00 11.5 35 Sur 78 Sur 0.2 977.3 0.1 88
2019-04-17 09:00:00 11.8 35 Sur 74 Sur 0 977.3 -0.2 83
2019-04-17 08:00:00 11.8 30 Sur 63 Sur 0 977.4 -0.4 77
2019-04-17 07:00:00 12.1 32 Sur 57 Sur 0 977.2 -1.5 73
2019-04-17 06:00:00 12.5 31 Sur 53 Sur 0 977.5 -1.7 65
2019-04-17 05:00:00 13.2 29 Sur 44 Sur 0 977.8 -2.5 58
2019-04-17 04:00:00 13.5 24 Sur 39 Sur 0 978.7 -2.3 58
2019-04-17 03:00:00 12.6 10 Sudeste 35 Sur 0 979.2 -2.8 61
2019-04-17 02:00:00 12.3 18 Sudeste 29 Sudeste 0 980.3 -2.6 61
2019-04-17 01:00:00 12.3 17 Sudeste 29 Sudeste 0 981 -2.3 58
2019-04-17 00:00:00 11.8 13 Sudeste 34 Sur 0 982 -1.3 63
2019-04-16 23:00:00 12 17 Sudeste 36 Sur 0 982.9 -1 66
2019-04-16 22:00:00 12 27 Sur 40 Sur 0 983.3 -1.1 66
2019-04-16 21:00:00 12.1 14 Sur 41 Sur 0 983.3 -1.4 67
2019-04-16 20:00:00 12.2 17 Sur 40 Sur 0 983.9 -1.5 74
2019-04-16 19:00:00 12.9 23 Sur 42 Sudoeste 0 984.4 -1.6 75
2019-04-16 18:00:00 14 20 Sur 41 Sur 0 984.7 -1.7 71
2019-04-16 17:00:00 14.7 21 Sur 44 Sur 0 985.4 -1.8 72
2019-04-16 16:00:00 14.7 21 Sur 54 Sur 0 986 -1.6 73
2019-04-16 15:00:00 14.5 26 Sur 56 Sur 0 986.4 -1.5 73
2019-04-16 14:00:00 14.4 27 Sur 52 Sur 0 987.2 -0.6 79
2019-04-16 13:00:00 13.7 27 Sur 57 Sur 0 987.6 -0.4 82
2019-04-16 12:00:00 13.1 28 Sur 57 Sur 0 987.9 0.1 84
2019-04-16 11:00:00 11.9 28 Sur 55 Sur 0 987.8 -0.1 88
2019-04-16 10:00:00 11.3 29 Sur 54 Sur 0 988 0.2 90
2019-04-16 09:00:00 10.6 27 Sur 53 Sur 0 987.8 -0.6 92
2019-04-16 08:00:00 10.9 28 Sur 53 Sur 0 987.9 -0.9 93
2019-04-16 07:00:00 11.1 26 Sur 58 Sur 0 987.8 -1.1 93
2019-04-16 06:00:00 11.1 23 Sur 49 Sudoeste 0 988.4 -0.7 92
2019-04-16 05:00:00 11.1 23 Sur 44 Sur 0 988.8 -0.8 93
2019-04-16 04:00:00 11.3 26 Sur 40 Sudoeste 0 988.9 -0.9 93
2019-04-16 03:00:00 10.5 33 Sudoeste 45 Sudoeste 0 989.1 -0.4 92
2019-04-16 02:00:00 11.1 21 Sur 41 Sudoeste 0 989.6 0.3 92
2019-04-16 01:00:00 11.1 30 Sudoeste 39 Sudoeste 0 989.8 0.9 91
2019-04-16 00:00:00 11.1 19 Sur 36 Sudoeste 0 989.5 1 91
2019-04-15 23:00:00 11.2 15 Sur 32 Sudoeste 0 989.3 1.4 90
2019-04-15 22:00:00 11.4 26 Sudoeste 33 Sudoeste 0 988.9 1.5 88
2019-04-15 21:00:00 12 21 Sudoeste 29 Sudoeste 0 988.5 1.7 83
2019-04-15 20:00:00 14.3 19 Sudoeste 30 Sudoeste 0 987.9 1.7 79
2019-04-15 19:00:00 14.3 23 Sudoeste 34 Oeste 0 987.4 2 80
2019-04-15 18:00:00 13.8 26 Oeste 36 Oeste 0 986.8 1.9 81
2019-04-15 17:00:00 13.3 26 Oeste 35 Oeste 0 986.2 2 82
2019-04-15 16:00:00 12.8 19 Noroeste 38 Oeste 0 985.4 1.9 87
2019-04-15 15:00:00 11.7 24 Noroeste 41 Noroeste 0 984.9 2.5 90
2019-04-15 14:00:00 11 26 Noroeste 42 Oeste 0 984.2 2.5 93
2019-04-15 13:00:00 11.3 31 Oeste 49 Oeste 0 983.5 3.1 95
2019-04-15 12:00:00 10.8 38 Oeste 51 Oeste 0 982.4 2.4 96
2019-04-15 11:00:00 11.1 36 Oeste 71 Sudoeste 1 981.7 1.9 96
2019-04-15 10:00:00 11.6 52 Sudoeste 66 Sudoeste 1.2 980.4 1.4 96
2019-04-15 09:00:00 11.6 51 Sudoeste 65 Sudoeste 0.8 980 0.5 96
2019-04-15 08:00:00 12.4 55 Sudoeste 78 Sudoeste 0.2 979.8 -0.1 96
2019-04-15 07:00:00 12.9 37 Sur 69 Sur 0 979 -1.5 96
2019-04-15 06:00:00 13 40 Sur 72 Sur 0 979.5 -2.2 96
2019-04-15 05:00:00 13.2 43 Sur 72 Sur 0 979.9 -2.9 96
2019-04-15 04:00:00 13.2 39 Sur 70 Sur 0 980.5 -3 96
2019-04-15 03:00:00 13.4 39 Sur 62 Sur 0.2 981.7 -2.4 96
2019-04-15 02:00:00 13.3 35 Sur 60 Sur 0 982.8 -1.7 96
2019-04-15 01:00:00 13.3 32 Sur 54 Sur 0.2 983.5 -1.1 96
2019-04-15 00:00:00 13.4 30 Sur 55 Sur 0 984.1 -0.8 96
2019-04-14 23:00:00 13.6 29 Sur 51 Sur 0 984.5 -0.5 96
2019-04-14 22:00:00 13.5 30 Sur 48 Sur 0.2 984.6 -0.6 96
2019-04-14 21:00:00 13.5 28 Sur 55 Sur 0.2 984.9 -0.9 96
2019-04-14 20:00:00 13.6 34 Sur 59 Sur 0 985 -1.5 96
2019-04-14 19:00:00 13.7 27 Sur 50 Sur 0.2 985.2 -2.1 96
2019-04-14 18:00:00 13.5 27 Sur 49 Sur 0.2 985.8 -2 96
2019-04-14 17:00:00 14.1 30 Sur 53 Sur 0 986.5 -1.7 96
2019-04-14 16:00:00 14.3 27 Sur 49 Sur 0 987.3 -1 96
2019-04-14 15:00:00 13.8 26 Sur 50 Sur 0.2 987.8 -0.7 96
2019-04-14 14:00:00 13.6 24 Sur 43 Sudoeste 0 988.2 -0.2 96
2019-04-14 13:00:00 13.6 23 Sur 44 Sur 0 988.3 0.2 96
2019-04-14 12:00:00 13.4 24 Sur 44 Sudoeste 0.2 988.5 0.5 96
2019-04-14 11:00:00 13.4 26 Sur 45 Sur 0 988.4 0.6 96
2019-04-14 10:00:00 13.2 25 Sur 42 Sur 0.4 988.1 0.2 96
2019-04-14 09:00:00 13 24 Sur 48 Sur 0 988 -0.3 96
2019-04-14 08:00:00 12.9 25 Sur 42 Sur 0.2 987.8 -0.8 96
2019-04-14 07:00:00 12.9 25 Sur 41 Sudoeste 0.2 987.9 -1.2 96
2019-04-14 06:00:00 12.8 24 Sur 40 Sur 0 988.3 -0.9 96
2019-04-14 05:00:00 12.8 24 Sur 40 Sur 0.2 988.6 -1 96
2019-04-14 04:00:00 12.8 23 Sur 48 Sur 0.2 989.1 -0.9 96
2019-04-14 03:00:00 12.8 28 Sur 48 Sur 0.4 989.2 -1.2 95
2019-04-14 02:00:00 12.7 27 Sur 51 Sur 0.2 989.6 -1 95
2019-04-14 01:00:00 12.8 30 Sur 49 Sur 0.2 990 -0.4 95
2019-04-14 00:00:00 12.7 28 Sur 47 Sur 0.4 990.4 0.5 95
2019-04-13 23:00:00 12.6 26 Sur 45 Sur 0.2 990.6 0.6 95
2019-04-13 22:00:00 12.5 25 Sur 49 Sur 0.2 990.4 0.9 95
2019-04-13 21:00:00 12.4 30 Sur 49 Sur 0.2 989.9 0.3 95
2019-04-13 20:00:00 12.3 26 Sur 52 Sur 0.2 990 0.3 95
2019-04-13 19:00:00 12.3 30 Sur 55 Sur 0.2 989.5 -0.5 95
2019-04-13 18:00:00 12.1 30 Sur 57 Sur 0 989.6 -0.6 94
2019-04-13 17:00:00 11.9 35 Sur 58 Sur 0.2 989.7 -0.5 94
2019-04-13 16:00:00 11.5 31 Sur 51 Sur 0.4 990 -0.3 94
2019-04-13 15:00:00 11.3 32 Sur 52 Sudeste 1.2 990.2 -0.3 93
2019-04-13 14:00:00 11.5 32 Sur 52 Sur 0.2 990.2 -0.3 90
2019-04-13 13:00:00 11.1 32 Sur 53 Sur 0.2 990.3 0.2 90
2019-04-13 12:00:00 11 25 Sur 44 Sur 0 990.5 0.7 89
2019-04-13 11:00:00 11.4 23 Sur 48 Sur 0 990.5 0.9 84
2019-04-13 10:00:00 11.4 28 Sur 49 Sur 0 990.1 0.4 84
2019-04-13 09:00:00 11.4 32 Sur 49 Sur 0 989.8 0 87
2019-04-13 08:00:00 11 32 Sur 49 Sur 0 989.6 -0.3 89
2019-04-13 07:00:00 11 29 Sur 43 Sur 0 989.7 -0.8 91
2019-04-13 06:00:00 11 30 Sur 44 Sur 0 989.8 -1.1 93
2019-04-13 05:00:00 11.2 32 Sur 44 Sudeste 0 989.9 -1.6 93
2019-04-13 04:00:00 11 27 Sur 38 Sur 0 990.5 -1 93
2019-04-13 03:00:00 11.4 23 Sudeste 36 Sur 0 990.9 -0.7 92
2019-04-13 02:00:00 11.3 22 Sur 29 Sur 0 991.5 -0.3 91
2019-04-13 01:00:00 11.4 19 Sur 27 Sur 0 991.5 0.1 89
2019-04-13 00:00:00 11.3 18 Sur 22 Sur 0 991.6 0.3 89
2019-04-12 23:00:00 11.5 14 Sur 18 Sur 0 991.8 0.8 90
2019-04-12 22:00:00 11.8 13 Sur 16 Sur 0 991.4 0.1 89
2019-04-12 21:00:00 12.1 14 Sudoeste 16 Sudoeste 0 991.3 0 85
2019-04-12 20:00:00 13.1 9 Sur 16 Sudoeste 0 991 -0.8 82
2019-04-12 19:00:00 14.3 9 Sudoeste 17 Sur 0 991.3 -1.1 79
2019-04-12 18:00:00 14.9 9 Sur 18 Sudoeste 0 991.3 -1.6 74
2019-04-12 17:00:00 15.3 11 Sur 19 Sur 0 991.8 -1.4 74
2019-04-12 16:00:00 14.6 12 Sur 22 Sur 0 992.4 -0.7 73
2019-04-12 15:00:00 14.3 11 Sur 19 Sudoeste 0 992.9 -0.1 71
2019-04-12 14:00:00 14.7 11 Sur 19 Sudoeste 0 993.2 0.6 66
2019-04-12 13:00:00 13.9 10 Sur 18 Sur 0 993.1 0.7 71
2019-04-12 12:00:00 14.2 7 Sur 14 Sur 0 993 0.5 61
2019-04-12 11:00:00 13.4 6 Sur 12 Sudoeste 0 992.6 0.2 62
2019-04-12 10:00:00 13.1 6 Sudoeste 10 Sudoeste 0 992.4 0.1 59
2019-04-12 09:00:00 12.1 3 Sur 9 Sudeste 0 992.5 -0.2 58
2019-04-12 08:00:00 10.3 6 Sudeste 6 Sudeste 0 992.4 -0.3 68
2019-04-12 07:00:00 10.4 2 Sudoeste 6 Noroeste 0 992.3 -0.5 68
2019-04-12 06:00:00 10.7 5 Oeste 8 Sur 0 992.7 -0.7 68
2019-04-12 05:00:00 10.3 8 Sudeste 15 Sudeste 0 992.7 -1 67
2019-04-12 04:00:00 10.6 6 Sudeste 14 Sudeste 0 992.8 -0.6 68
2019-04-12 03:00:00 10.4 4 Este 14 Sudeste 0 993.4 -0.3 70
2019-04-12 02:00:00 10.6 8 Este 23 Este 0 993.7 0 69
2019-04-12 01:00:00 10.9 18 Este 29 Este 0 993.4 -0.1 63
2019-04-12 00:00:00 11 20 Este 41 Este 0 993.7 0 54
2019-04-11 23:00:00 10.7 28 Este 42 Este 0 993.7 0 56
2019-04-11 22:00:00 10 28 Este 39 Este 0 993.5 -0.3 73
2019-04-11 21:00:00 11.1 23 Nordeste 34 Nordeste 0 993.7 -0.1 76
2019-04-11 20:00:00 11.1 24 Norte 39 Norte 0 993.7 -0.3 82
2019-04-11 19:00:00 11.8 23 Norte 43 Norte 0 993.8 -0.4 81
2019-04-11 18:00:00 11.5 31 Norte 48 Norte 0 993.8 -0.8 78
2019-04-11 17:00:00 11.8 30 Norte 46 Norte 0 994 -0.9 80
2019-04-11 16:00:00 11.9 24 Norte 40 Norte 0 994.2 -0.9 77
2019-04-11 15:00:00 12.1 23 Norte 33 Norte 0 994.6 -0.5 78
2019-04-11 14:00:00 12.3 17 Norte 24 Norte 0 994.9 -0.1 77
2019-04-11 13:00:00 11.7 12 Norte 18 Norte 0 995.1 0.3 80
2019-04-11 12:00:00 11.6 10 Norte 20 Norte 0 995.1 0.6 80
2019-04-11 11:00:00 11.6 9 Nordeste 18 Nordeste 0 995 0.8 75
2019-04-11 10:00:00 11 8 Este 17 Este 0 994.8 0.8 76
2019-04-11 09:00:00 9.7 11 Nordeste 18 Este 0 994.5 0.3 79
2019-04-11 08:00:00 8.7 14 Este 20 Este 0 994.2 0.1 82
2019-04-11 07:00:00 8.5 15 Nordeste 21 Este 0 994 -0.1 83
2019-04-11 06:00:00 8.7 15 Este 19 Nordeste 0 994.2 -0.1 82
2019-04-11 05:00:00 9 17 Este 23 Este 0 994.1 -0.3 81
2019-04-11 04:00:00 8.9 18 Este 25 Nordeste 0 994.1 -0.2 86
2019-04-11 03:00:00 9.2 19 Nordeste 24 Nordeste 0 994.3 -0.1 87
2019-04-11 02:00:00 9.2 19 Nordeste 26 Nordeste 0 994.4 0.1 88
2019-04-11 01:00:00 9.4 21 Nordeste 25 Nordeste 0 994.3 0.3 88
2019-04-11 00:00:00 9.3 21 Nordeste 26 Nordeste 0 994.4 1 89
2019-04-10 23:00:00 9.6 22 Nordeste 28 Nordeste 0 994.3 1.4 87
2019-04-10 22:00:00 10 22 Nordeste 27 Nordeste 0 994 1.5 86
2019-04-10 21:00:00 10.7 17 Norte 34 Norte 0 993.4 1 83
2019-04-10 20:00:00 11.6 23 Norte 41 Norte 0 992.9 0.6 81
2019-04-10 19:00:00 12 29 Norte 44 Norte 0 992.5 0.1 79
2019-04-10 18:00:00 12.3 26 Norte 41 Norte 0 992.4 0.3 81
2019-04-10 17:00:00 12.6 22 Norte 36 Norte 0 992.3 0.3 82
2019-04-10 16:00:00 12.5 23 Norte 36 Norte 0 992.4 0.3 81
2019-04-10 15:00:00 12.1 22 Norte 37 Norte 0 992.1 0.4 83
2019-04-10 14:00:00 11.4 23 Norte 40 Norte 0 992 0.8 83
2019-04-10 13:00:00 11.3 22 Norte 36 Norte 0 992.1 1.4 85
2019-04-10 12:00:00 10.9 24 Norte 39 Norte 0 991.7 1.5 87
2019-04-10 11:00:00 10.7 26 Norte 40 Norte 0 991.2 1.6 87
2019-04-10 10:00:00 10.4 25 Norte 43 Norte 0 990.7 1.8 86
2019-04-10 09:00:00 9.9 28 Norte 43 Norte 0 990.2 1.5 85
2019-04-10 08:00:00 9.9 26 Norte 42 Norte 0 989.6 1.2 86
2019-04-10 07:00:00 9.8 29 Norte 46 Norte 0 988.9 0.8 86
2019-04-10 06:00:00 10.2 26 Norte 58 Norte 0 988.7 0.6 88
2019-04-10 05:00:00 10 17 Noroeste 55 Norte 0 988.4 0.3 91
2019-04-10 04:00:00 10.2 20 Noroeste 53 Norte 0 988.1 0.3 90
2019-04-10 03:00:00 10.3 21 Noroeste 52 Norte 0 988.1 0.4 89
2019-04-10 02:00:00 10.2 20 Noroeste 54 Norte 0 988.1 1 89
2019-04-10 01:00:00 10.1 24 Noroeste 55 Noroeste 0.2 987.8 1.2 91
2019-04-10 00:00:00 9.7 27 Noroeste 53 Norte 1.8 987.7 1.7 93
2019-04-09 23:00:00 10.1 26 Noroeste 71 Noroeste 2.8 987.1 1.8 92
2019-04-09 22:00:00 10.2 18 Noroeste 58 Noroeste 0 986.6 1.9 87
2019-04-09 21:00:00 10.5 28 Noroeste 70 Noroeste 0 986 1.5 86
2019-04-09 20:00:00 11.2 28 Noroeste 69 Noroeste 0 985.3 0.9 82
2019-04-09 19:00:00 11 42 Noroeste 80 Noroeste 0 984.7 0.6 83
2019-04-09 18:00:00 10.7 29 Noroeste 72 Noroeste 0 984.5 1.1 85
2019-04-09 17:00:00 11 40 Noroeste 63 Noroeste 0 984.4 0.4 85
2019-04-09 16:00:00 11.4 30 Noroeste 70 Norte 0 984.1 0 85
2019-04-09 15:00:00 10.7 34 Noroeste 62 Noroeste 1.2 983.4 -0.4 88
2019-04-09 14:00:00 10.6 44 Oeste 59 Oeste 0 984 0.7 82
2019-04-09 13:00:00 11 44 Oeste 63 Oeste 0.2 984.1 0.8 79
2019-04-09 12:00:00 8.6 46 Oeste 80 Noroeste 0.4 983.8 1.2 87
2019-04-09 11:00:00 9.4 30 Noroeste 64 Noroeste 0 983.3 1.4 85
2019-04-09 10:00:00 10 31 Noroeste 54 Noroeste 0 983.3 1.7 79
2019-04-09 09:00:00 9.3 31 Noroeste 62 Noroeste 0 982.6 1 80
2019-04-09 08:00:00 9.4 33 Noroeste 63 Noroeste 0 981.9 0.5 83
2019-04-09 07:00:00 9 32 Noroeste 51 Oeste 0 981.6 0.8 84
2019-04-09 06:00:00 8.6 25 Oeste 41 Oeste 0.2 981.6 0.7 90
2019-04-09 05:00:00 8 21 Noroeste 69 Noroeste 0.8 981.4 0.8 91
2019-04-09 04:00:00 9.3 32 Oeste 50 Oeste 0 980.8 0.2 90
2019-04-09 03:00:00 9.7 36 Oeste 55 Oeste 0.2 980.9 0.1 88
2019-04-09 02:00:00 9.8 36 Oeste 58 Oeste 0 980.6 -0.4 90
2019-04-09 01:00:00 10.3 39 Oeste 57 Oeste 0 980.6 -0.3 90
2019-04-09 00:00:00 10 40 Sudoeste 69 Sudoeste 0.4 980.8 0.3 91
2019-04-08 23:00:00 10 39 Sudoeste 62 Sudoeste 0 981 0.1 90
2019-04-08 22:00:00 9.7 47 Sudoeste 74 Sudoeste 0 980.9 0.6 90
2019-04-08 21:00:00 9.2 49 Sudoeste 65 Sudoeste 0.8 980.5 -0.3 91
2019-04-08 20:00:00 8.7 58 Sudoeste 87 Sudoeste 0.6 980.9 -0.9 87
2019-04-08 19:00:00 11.8 64 Sudoeste 86 Sudoeste 0 980.3 -2.2 84
2019-04-08 18:00:00 10.9 59 Sudoeste 94 Sudoeste 1.4 980.8 -1.7 86
2019-04-08 17:00:00 13 46 Sudoeste 65 Sudoeste 0 981.8 -1.3 78
2019-04-08 16:00:00 11.4 44 Sudoeste 73 Sudoeste 0.6 982.5 -0.8 88
2019-04-08 15:00:00 13.1 59 Sudoeste 73 Sudoeste 0 982.5 -0.7 70
2019-04-08 14:00:00 12 46 Sudoeste 72 Sudoeste 0 983.1 -0.1 75
2019-04-08 13:00:00 11.8 46 Sudoeste 71 Sudoeste 0 983.3 0.1 76
2019-04-08 12:00:00 11.6 45 Sudoeste 59 Sudoeste 0 983.2 0.1 74
2019-04-08 11:00:00 11.6 38 Sudoeste 50 Sudoeste 0 983.2 0.4 78
2019-04-08 10:00:00 10.2 34 Sudoeste 47 Sudoeste 0 983.2 0.6 80
2019-04-08 09:00:00 9.5 35 Sudoeste 46 Sudoeste 0 983.1 0.6 81
2019-04-08 08:00:00 8.9 30 Oeste 44 Oeste 0 982.8 0.3 83
2019-04-08 07:00:00 9.1 32 Sudoeste 46 Sudoeste 0 982.6 0.4 86
2019-04-08 06:00:00 9.3 31 Oeste 59 Sudoeste 0 982.5 0.6 86
2019-04-08 05:00:00 9.5 30 Oeste 69 Oeste 0 982.5 1 85
2019-04-08 04:00:00 10 37 Oeste 48 Oeste 0 982.2 1.1 84
2019-04-08 03:00:00 10.1 32 Oeste 46 Oeste 0 981.9 1.6 83
2019-04-08 02:00:00 10.3 27 Noroeste 45 Oeste 0 981.5 1.9 88
2019-04-08 01:00:00 10.4 29 Noroeste 46 Noroeste 0.2 981.1 2.4 90
2019-04-08 00:00:00 10.5 23 Noroeste 39 Noroeste 0 980.3 2.4 95
2019-04-07 23:00:00 10.5 19 Oeste 30 Noroeste 0.2 979.6 1.7 95
2019-04-07 22:00:00 10.2 22 Noroeste 48 Sudoeste 3 978.7 0.7 94
2019-04-07 21:00:00 11.7 36 Sudoeste 47 Sudoeste 1.4 977.9 0.6 95
2019-04-07 20:00:00 12 36 Sudoeste 52 Sudoeste 0.2 977.9 -0.3 94
2019-04-07 19:00:00 12.3 31 Sudoeste 46 Sur 0 978 -0.5 94
2019-04-07 18:00:00 11 34 Sur 71 Sudeste 2.2 977.3 -1.4 94
2019-04-07 17:00:00 9.5 26 Sudeste 67 Sur 4.6 978.2 -1.1 94
2019-04-07 16:00:00 9.2 32 Sur 73 Sur 2.4 978.5 -1.8 93
2019-04-07 15:00:00 9.7 39 Sur 69 Sur 0.8 978.7 -1.7 92
2019-04-07 14:00:00 9.9 30 Sur 61 Sur 0.8 979.3 -1.2 90
2019-04-07 13:00:00 10.2 26 Sur 56 Sur 0 980.3 -0.5 87
2019-04-07 12:00:00 10 24 Sur 48 Sur 0 980.4 -0.4 85
2019-04-07 11:00:00 9.5 22 Sur 40 Sur 0 980.5 0 86
2019-04-07 10:00:00 8.9 21 Sur 31 Sur 0 980.8 0.4 88
2019-04-07 09:00:00 8.3 21 Sur 28 Sur 0 980.8 0.4 89
2019-04-07 08:00:00 7.9 14 Sudeste 21 Sudeste 0 980.5 0.4 87
2019-04-07 07:00:00 8.2 7 Sur 19 Oeste 0 980.4 0.5 82
2019-04-07 06:00:00 8.6 7 Oeste 26 Oeste 0 980.4 0.5 79
2019-04-07 05:00:00 8.4 18 Oeste 29 Oeste 0 980.1 0.2 77
2019-04-07 04:00:00 8.3 9 Noroeste 21 Noroeste 0 979.9 0.3 80
2019-04-07 03:00:00 8.2 14 Noroeste 27 Oeste 0 979.9 0.7 80
2019-04-07 02:00:00 8 12 Oeste 21 Oeste 0 979.9 1.4 81
2019-04-07 01:00:00 7.9 5 Noroeste 19 Nordeste 0 979.6 1.7 82
2019-04-07 00:00:00 6.9 14 Nordeste 39 Norte 0 979.2 1.7 83
2019-04-06 23:00:00 8.3 16 Norte 33 Norte 0 978.5 1.4 78
2019-04-06 22:00:00 8.1 24 Norte 43 Norte 0 977.9 1.3 75
2019-04-06 21:00:00 8.3 18 Norte 34 Norte 0 977.5 1.5 80
2019-04-06 20:00:00 8 27 Norte 41 Norte 0 977.1 1.5 82
2019-04-06 19:00:00 7.7 20 Noroeste 54 Noroeste 0.6 976.6 1.2 79
2019-04-06 18:00:00 9.1 23 Noroeste 51 Noroeste 0 976 1 75
2019-04-06 17:00:00 10.9 23 Noroeste 51 Noroeste 0 975.6 1.5 68
2019-04-06 16:00:00 11 20 Noroeste 51 Norte 0 975.4 1.7 71
2019-04-06 15:00:00 10.6 23 Noroeste 55 Noroeste 0 975 2.6 68
2019-04-06 14:00:00 9.6 28 Noroeste 62 Norte 0.2 974.1 3 75
2019-04-06 13:00:00 8 29 Noroeste 77 Norte 0 973.7 3.3 85
2019-04-06 12:00:00 7.7 38 Noroeste 86 Norte 0 972.4 3.3 81
2019-04-06 11:00:00 8.3 38 Noroeste 82 Noroeste 0 971.1 3.4 83
2019-04-06 10:00:00 7.8 26 Noroeste 76 Norte 0.2 970.4 3.3 82
2019-04-06 09:00:00 8 26 Noroeste 86 Norte 0 969.1 2.8 83
2019-04-06 08:00:00 7.4 27 Noroeste 69 Noroeste 0 967.7 0.6 86
2019-04-06 07:00:00 7.5 32 Noroeste 79 Noroeste 0 967.1 -1 87
2019-04-06 06:00:00 8.1 44 Noroeste 86 Oeste 0 966.3 -1.9 85
2019-04-06 05:00:00 8.3 50 Oeste 89 Oeste 0.2 967.1 -3 82
2019-04-06 04:00:00 7.5 48 Oeste 103 Noroeste 0.4 968.1 -3.1 85
2019-04-06 03:00:00 8.1 56 Oeste 100 Oeste 0 968.2 -3.6 78
2019-04-06 02:00:00 8.5 56 Oeste 73 Oeste 0 970.1 -2 77
2019-04-06 01:00:00 7.8 42 Oeste 76 Oeste 0 971.2 -1 82
2019-04-06 00:00:00 6.7 49 Oeste 91 Oeste 0.8 971.8 -0.3 84
2019-04-05 23:00:00 8.3 46 Oeste 63 Oeste 0 972.1 0 70
2019-04-05 22:00:00 7.8 25 Noroeste 64 Oeste 0.6 972.2 0.5 82
2019-04-05 21:00:00 9.2 19 Noroeste 35 Noroeste 0 972.1 0.9 71
2019-04-05 20:00:00 9.6 12 Noroeste 37 Noroeste 0 972.1 1.4 69
2019-04-05 19:00:00 11.4 19 Noroeste 37 Noroeste 0 971.7 1.3 67
2019-04-05 18:00:00 10.6 17 Noroeste 38 Noroeste 0 971.2 1.1 69
2019-04-05 17:00:00 10.2 21 Noroeste 41 Noroeste 0 970.7 0.8 70
2019-04-05 16:00:00 10.6 19 Noroeste 42 Noroeste 0 970.4 0.8 69
2019-04-05 15:00:00 10.1 17 Noroeste 40 Oeste 0.2 970.1 1.1 73
2019-04-05 14:00:00 7.9 27 Oeste 62 Oeste 0.2 969.9 1.8 86
2019-04-05 13:00:00 8.8 22 Noroeste 56 Noroeste 0.2 969.6 1.7 73
2019-04-05 12:00:00 8.2 25 Noroeste 55 Oeste 0.2 969 1.4 80
2019-04-05 11:00:00 7.6 44 Oeste 59 Oeste 0 968.1 0.5 80
2019-04-05 10:00:00 6.6 45 Oeste 69 Oeste 0.2 967.9 0.5 81
2019-04-05 09:00:00 6.8 41 Oeste 84 Oeste 0 967.6 -0.2 74
2019-04-05 08:00:00 7.3 45 Oeste 61 Oeste 0 967.6 -0.6 69
2019-04-05 07:00:00 6.7 33 Oeste 59 Oeste 0 967.4 -1.1 75
2019-04-05 06:00:00 6.9 39 Oeste 51 Oeste 0 967.8 -1.2 71
2019-04-05 05:00:00 6.5 31 Oeste 55 Oeste 0 968.2 -1.1 73
2019-04-05 04:00:00 7.1 30 Oeste 51 Oeste 0 968.5 -0.8 73
2019-04-05 03:00:00 7.1 23 Noroeste 50 Noroeste 0 969 0 75
2019-04-05 02:00:00 7.3 25 Noroeste 46 Noroeste 0 969.3 -0.1 68
2019-04-05 01:00:00 7.6 26 Oeste 63 Noroeste 0 969.3 -0.3 71
2019-04-05 00:00:00 7.5 32 Noroeste 60 Oeste 0 969 -0.7 76
2019-04-04 23:00:00 7.8 25 Noroeste 45 Noroeste 0.4 969.4 -0.5 77
2019-04-04 22:00:00 7.8 13 Noroeste 59 Noroeste 0 969.6 -0.5 81
2019-04-04 21:00:00 8 22 Noroeste 55 Noroeste 0 969.7 -1.1 83
2019-04-04 20:00:00 8.5 20 Noroeste 49 Noroeste 0 969.9 -1.3 82
2019-04-04 19:00:00 9.4 18 Noroeste 42 Noroeste 0 970.1 -1.3 84
2019-04-04 18:00:00 8.8 27 Noroeste 46 Noroeste 0.4 970.8 -1.7 85
2019-04-04 17:00:00 8.6 27 Noroeste 75 Sudoeste 4.4 971.2 -2.6 93
2019-04-04 16:00:00 9.4 51 Sudoeste 70 Sudoeste 1.8 971.4 -3.3 94
2019-04-04 15:00:00 9.1 55 Sudoeste 73 Sudoeste 2.4 972.5 -3.1 93
2019-04-04 14:00:00 9.2 50 Sudoeste 73 Sudoeste 2.4 973.8 -2.8 92
2019-04-04 13:00:00 8.8 48 Sudoeste 61 Sudoeste 0.8 974.7 -2.6 90
2019-04-04 12:00:00 8.5 41 Sudoeste 58 Sudoeste 0.8 975.6 -2.4 89
2019-04-04 11:00:00 8.1 34 Sudoeste 49 Oeste 0.2 976.6 -1.9 83
2019-04-04 10:00:00 8.9 31 Oeste 45 Oeste 0 977.3 -1.6 63
2019-04-04 09:00:00 8.6 32 Oeste 42 Oeste 0 978 -1.6 66
2019-04-04 08:00:00 7.9 18 Oeste 43 Noroeste 0 978.5 -1.9 78
2019-04-04 07:00:00 8 12 Noroeste 37 Noroeste 0.2 978.9 -2.4 67
2019-04-04 06:00:00 7.7 12 Noroeste 31 Noroeste 0 979.6 -2.4 67
2019-04-04 05:00:00 7.4 9 Noroeste 24 Noroeste 0 980.4 -2.7 80
2019-04-04 04:00:00 7.1 10 Noroeste 40 Norte 0 981.3 -2.2 78
2019-04-04 03:00:00 6.8 29 Norte 45 Norte 0 982 -2 79
2019-04-04 02:00:00 7.4 26 Norte 55 Norte 0 983.1 -1.3 71
2019-04-04 01:00:00 8.5 26 Norte 50 Noroeste 0 983.5 -1.1 69
2019-04-04 00:00:00 8.4 30 Norte 49 Norte 0 984 -0.3 65
2019-04-03 23:00:00 8 31 Norte 56 Norte 0 984.4 0 72
2019-04-03 22:00:00 7.4 31 Norte 76 Norte 0 984.6 0.1 75
2019-04-03 21:00:00 8.7 35 Norte 60 Norte 0 984.3 -0.5 63
2019-04-03 20:00:00 8.6 34 Norte 60 Norte 0 984.4 -1.1 67
2019-04-03 19:00:00 9.8 37 Norte 62 Norte 0 984.5 -1.1 56
2019-04-03 18:00:00 10.1 37 Norte 62 Norte 0 984.8 -1.1 56
2019-04-03 17:00:00 10 35 Norte 56 Norte 0 985.5 -0.5 57
2019-04-03 16:00:00 9.8 36 Norte 60 Norte 0 985.6 -1.1 58
2019-04-03 15:00:00 9.2 38 Norte 65 Norte 0 985.9 -1.1 61
2019-04-03 14:00:00 9.4 37 Norte 64 Nordeste 0 986 -0.9 70
2019-04-03 13:00:00 9.2 35 Norte 74 Norte 0 986.7 -0.5 66
2019-04-03 12:00:00 8.8 36 Norte 75 Norte 0 987 -0.3 67
2019-04-03 11:00:00 8.7 36 Norte 66 Norte 0 986.9 -0.2 67
2019-04-03 10:00:00 8.8 33 Norte 64 Norte 0 987.2 -0.3 67
2019-04-03 09:00:00 8.7 31 Norte 58 Norte 0 987.3 -0.5 64
2019-04-03 08:00:00 8.5 35 Norte 57 Norte 0 987.1 -1.2 64
2019-04-03 07:00:00 8.5 31 Norte 63 Norte 0 987.5 -1.4 68
2019-04-03 06:00:00 8.6 30 Norte 60 Norte 0 987.8 -1.5 69
2019-04-03 05:00:00 8.8 35 Norte 61 Norte 0 988.3 -1.7 69
2019-04-03 04:00:00 8.4 28 Norte 57 Norte 0 988.9 -1.5 70
2019-04-03 03:00:00 8.1 27 Norte 53 Norte 0 989.3 -1.5 82
2019-04-03 02:00:00 8.6 26 Norte 51 Norte 0 990 -0.8 72
2019-04-03 01:00:00 8.7 30 Norte 50 Norte 0 990.4 0 79
2019-04-03 00:00:00 9.2 24 Norte 47 Norte 0 990.8 0.4 71
2019-04-02 23:00:00 9.1 30 Norte 48 Norte 0 990.8 0.3 69
2019-04-02 22:00:00 9.4 32 Norte 49 Norte 0 990.4 -0.1 71
2019-04-02 21:00:00 9.6 30 Norte 52 Norte 0 990.4 -0.2 73
2019-04-02 20:00:00 10.3 26 Norte 52 Norte 0 990.5 -0.4 72
2019-04-02 19:00:00 11 26 Norte 50 Norte 0 990.5 -0.7 74
2019-04-02 18:00:00 11.5 31 Norte 52 Norte 0 990.6 -0.8 72
2019-04-02 17:00:00 12 27 Norte 48 Norte 0 990.9 -0.7 70
2019-04-02 16:00:00 11.9 27 Norte 46 Norte 0 991.2 -0.8 70
2019-04-02 15:00:00 11.6 29 Norte 48 Norte 0 991.4 -0.5 74
2019-04-02 14:00:00 11.5 29 Norte 46 Norte 0 991.6 0.1 73
2019-04-02 13:00:00 11.3 27 Norte 47 Norte 0 992 0.8 72
2019-04-02 12:00:00 11.2 25 Norte 46 Norte 0 991.9 1 75
2019-04-02 11:00:00 11.4 23 Nordeste 39 Nordeste 0 991.5 1 69
2019-04-02 10:00:00 10.5 24 Nordeste 40 Norte 0 991.2 1.2 82
2019-04-02 09:00:00 10 26 Nordeste 46 Norte 0 990.9 0.9 85
2019-04-02 08:00:00 10 30 Norte 53 Norte 0 990.5 1 84
2019-04-02 07:00:00 10.2 33 Norte 51 Norte 0 990 0.5 86
2019-04-02 06:00:00 9.9 36 Nordeste 54 Nordeste 0 990 0.2 85
2019-04-02 05:00:00 9.9 35 Nordeste 52 Norte 0 989.5 -0.4 86
2019-04-02 04:00:00 9.9 39 Nordeste 52 Nordeste 0 989.5 0 89
2019-04-02 03:00:00 10.2 33 Nordeste 53 Nordeste 0 989.8 0.2 88
2019-04-02 02:00:00 10.5 34 Nordeste 57 Nordeste 0 989.9 0.5 89
2019-04-02 01:00:00 10.6 39 Nordeste 55 Nordeste 0 989.5 0.9 89
2019-04-02 00:00:00 10.8 19 Nordeste 29 Nordeste 0 989.6 1.8 88
2019-04-01 23:00:00 10.6 21 Nordeste 31 Nordeste 0 989.4 2.2 88
2019-04-01 22:00:00 11.8 20 Nordeste 29 Nordeste 0 988.6 2 80
2019-04-01 21:00:00 13.9 12 Este 30 Este 0 987.8 1.6 68
2019-04-01 20:00:00 15.7 15 Nordeste 29 Nordeste 0 987.2 1.2 63
2019-04-01 19:00:00 16.1 13 Norte 27 Norte 0 986.6 0.1 69
2019-04-01 18:00:00 18 16 Nordeste 36 Nordeste 0 986.2 -0.5 52
2019-04-01 17:00:00 17.3 15 Norte 24 Nordeste 0 986 -0.7 60
2019-04-01 16:00:00 18.3 10 Noroeste 15 Noroeste 0 986.5 -0.2 51
2019-04-01 15:00:00 19.6 6 Noroeste 12 Noroeste 0 986.7 0.3 41
2019-04-01 14:00:00 18 6 Noroeste 10 Noroeste 0 986.7 0.9 48
2019-04-01 13:00:00 17.3 5 Norte 11 Sudeste 0 986.7 1.4 47
2019-04-01 12:00:00 18.6 6 Sudeste 12 Sudeste 0 986.4 1.8 43
2019-04-01 11:00:00 17.6 5 Sudeste 14 Este 0 985.8 1.8 45
2019-04-01 10:00:00 15.7 9 Este 17 Sudeste 0 985.3 1.7 49
2019-04-01 09:00:00 13.8 10 Sudeste 16 Sudeste 0 984.6 1.3 53
2019-04-01 08:00:00 13.8 9 Sudeste 19 Sudeste 0 984 0.6 53
2019-04-01 07:00:00 14 15 Sudeste 22 Sudeste 0 983.6 -0.1 53
2019-04-01 06:00:00 14.8 13 Sudeste 22 Sudeste 0 983.3 -0.6 48
2019-04-01 05:00:00 15 16 Este 28 Este 0 983.4 -0.9 49
2019-04-01 04:00:00 14.6 16 Este 34 Este 0 983.7 -0.5 51
2019-04-01 03:00:00 14.8 25 Este 36 Este 0 983.9 -0.4 52
2019-04-01 02:00:00 15 15 Este 29 Nordeste 0 984.3 -0.3 60
2019-04-01 01:00:00 14.5 26 Este 37 Este 0 984.2 0 54
2019-04-01 00:00:00 14 24 Nordeste 32 Nordeste 0 984.3 0.4 63
2019-03-31 23:00:00 14.7 13 Este 28 Este 0 984.6 1 55
2019-03-31 22:00:00 15.5 13 Este 33 Este 0 984.2 0.3 48
2019-03-31 21:00:00 15.5 18 Este 32 Este 0 983.9 0.2 59
2019-03-31 20:00:00 15.3 13 Nordeste 33 Este 0 983.6 -0.3 69
2019-03-31 19:00:00 16.8 13 Este 31 Nordeste 0 983.9 -0.3 68
2019-03-31 18:00:00 15.6 24 Nordeste 44 Nordeste 0 983.7 -1.2 74
2019-03-31 17:00:00 14.1 28 Nordeste 44 Nordeste 0 983.9 -1.5 81
2019-03-31 16:00:00 14 34 Nordeste 48 Norte 0 984.2 -1.6 79
2019-03-31 15:00:00 13.4 27 Norte 43 Nordeste 0 984.9 -1.3 82
2019-03-31 14:00:00 12.1 32 Nordeste 45 Nordeste 0 985.4 -0.8 85
2019-03-31 13:00:00 11.3 34 Norte 44 Norte 0 985.8 0 87
2019-03-31 12:00:00 11.4 20 Norte 34 Nordeste 0 986.2 0.5 79
2019-03-31 11:00:00 12.2 19 Nordeste 33 Nordeste 0 986.2 0.5 57
2019-03-31 10:00:00 15.1 24 Nordeste 35 Nordeste 0 985.8 0 26
2019-03-31 09:00:00 14.4 25 Nordeste 35 Nordeste 0 985.7 -0.5 28
2019-03-31 08:00:00 14 24 Nordeste 32 Nordeste 0 985.7 -1.3 28
2019-03-31 07:00:00 13.5 22 Nordeste 28 Nordeste 0 985.8 -1.8 30
2019-03-31 06:00:00 13.7 22 Nordeste 27 Nordeste 0 986.2 -1.9 30
2019-03-31 05:00:00 12.3 21 Nordeste 23 Nordeste 0 987 -1.7 39
2019-03-31 03:00:00 13.7 15 Nordeste 18 Nordeste 0 988.1 -1.1 33
2019-03-31 01:00:00 12.7 15 Nordeste 19 Nordeste 0 988.7 -0.5 43
2019-03-31 00:00:00 10.1 15 Este 27 Norte 0 989.2 0.2 83
2019-03-30 23:00:00 9.9 21 Norte 26 Norte 0 989.2 0.6 92
2019-03-30 22:00:00 9.9 15 Nordeste 19 Nordeste 0 989.2 0.5 92
2019-03-30 21:00:00 10.6 15 Nordeste 23 Nordeste 0 989 0 73
2019-03-30 20:00:00 10.5 18 Nordeste 27 Norte 0 988.6 -0.5 90
2019-03-30 19:00:00 12 18 Norte 29 Norte 0 988.7 -0.8 84
2019-03-30 18:00:00 13.3 15 Norte 22 Norte 0 989 -0.9 81
2019-03-30 17:00:00 14.3 8 Noroeste 15 Oeste 0 989.1 -1.1 78
2019-03-30 16:00:00 14.4 5 Noroeste 15 Sudoeste 0 989.5 -0.8 76
2019-03-30 15:00:00 15.6 6 Sudoeste 21 Sudoeste 0 989.9 -0.8 76
2019-03-30 14:00:00 14.8 12 Sur 22 Sur 0 990.2 -0.5 79
2019-03-30 13:00:00 13.6 15 Sur 28 Sur 0 990.3 -0.3 81
2019-03-30 12:00:00 12.4 17 Sur 31 Sur 0 990.7 0 86
2019-03-30 11:00:00 11.7 20 Sur 29 Sur 0 990.7 0.4 91
2019-03-30 10:00:00 10.3 22 Sur 28 Sur 0 990.6 0.4 94
2019-03-30 09:00:00 10 18 Sur 33 Sur 0 990.7 0.7 94
2019-03-30 08:00:00 9.6 22 Sur 32 Sur 0 990.3 0 94
2019-03-30 07:00:00 9.9 19 Sur 37 Sur 0 990.2 -0.2 94
2019-03-30 06:00:00 10.2 22 Sur 33 Sur 0 990 -0.7 92
2019-03-30 05:00:00 10.6 22 Sur 29 Sur 0 990.3 -0.9 88
2019-03-30 04:00:00 10.4 19 Sudeste 33 Sur 0 990.4 -1 87
2019-03-30 03:00:00 11.3 26 Sur 33 Sur 0 990.7 -0.9 88
2019-03-30 02:00:00 11.6 22 Sur 28 Sur 0 991.2 -0.7 87
2019-03-30 01:00:00 11.9 21 Sur 28 Sur 0 991.4 -0.6 82
2019-03-30 00:00:00 11.7 15 Sudeste 21 Sudeste 0 991.6 -0.3 82
2019-03-29 23:00:00 12.2 18 Sudeste 22 Sudeste 0 991.9 0.2 82
2019-03-29 22:00:00 12.5 12 Sudeste 15 Sudeste 0 992 0.2 68
2019-03-29 21:00:00 12.9 9 Sudeste 9 Sudeste 0 991.9 0.2 65
2019-03-29 20:00:00 14 7 Sur 9 Sudeste 0 991.7 -0.2 68
2019-03-29 19:00:00 17 5 Sur 11 Sudoeste 0 991.8 -0.7 47
2019-03-29 18:00:00 18.8 7 Sur 14 Sudoeste 0 991.7 -1.3 41
2019-03-29 17:00:00 19.4 9 Sudoeste 15 Sudoeste 0 991.9 -1.5 35
2019-03-29 16:00:00 19.4 9 Sudoeste 17 Sudoeste 0 992.5 -1 36
2019-03-29 15:00:00 20.2 11 Sudoeste 18 Sudoeste 0 993 -0.8 32
2019-03-29 14:00:00 21.4 10 Sudoeste 19 Sudoeste 0 993.4 -0.4 31
2019-03-29 13:00:00 21.2 14 Sudoeste 20 Sudoeste 0 993.5 -0.3 31
2019-03-29 12:00:00 20 12 Sudoeste 17 Sudoeste 0 993.8 0.1 35
2019-03-29 11:00:00 18.9 10 Sur 16 Sur 0 993.8 0.3 32
2019-03-29 10:00:00 18.3 5 Sur 14 Sudeste 0 993.8 0.4 36
2019-03-29 09:00:00 17.4 4 Sur 17 Sur 0 993.7 0.3 39
2019-03-29 08:00:00 15.2 14 Sur 18 Sur 0 993.5 -0.1 40
2019-03-29 07:00:00 14.8 13 Sur 16 Sur 0 993.4 -0.6 42
2019-03-29 06:00:00 15.8 6 Sur 17 Sur 0 993.4 -0.8 39
2019-03-29 05:00:00 15.2 7 Sur 10 Sur 0 993.6 -0.8 41
2019-03-29 04:00:00 14.8 6 Sudeste 13 Sudeste 0 994 -0.7 41
2019-03-29 03:00:00 15.2 5 Sur 8 Sudeste 0 994.2 -0.6 39
2019-03-29 02:00:00 15.4 5 Sudeste 15 Este 0 994.4 -0.6 39
2019-03-29 01:00:00 15 12 Sudeste 18 Sudeste 0 994.7 -0.2 41
2019-03-29 00:00:00 17 10 Sudeste 20 Este 0 994.8 0.1 33
2019-03-28 23:00:00 15.7 17 Este 38 Este 0 995 0.6 38
2019-03-28 22:00:00 15 31 Este 45 Este 0 994.9 0.4 44
2019-03-28 21:00:00 15.6 28 Este 44 Este 0 994.7 -0.1 46
2019-03-28 20:00:00 15.9 32 Este 42 Este 0 994.4 -0.8 48
2019-03-28 19:00:00 17.6 19 Este 34 Este 0 994.5 -1.3 46
2019-03-28 18:00:00 19 19 Este 31 Este 0 994.8 -1.8 41
2019-03-28 17:00:00 19.6 19 Nordeste 31 Nordeste 0 995.2 -2.2 44
2019-03-28 16:00:00 19.2 21 Nordeste 31 Nordeste 0 995.8 -2.1 48
2019-03-28 15:00:00 19.8 14 Norte 19 Norte 0 996.6 -1.5 38
2019-03-28 14:00:00 19.5 8 Norte 10 Norte 0 997.4 -1 33
2019-03-28 13:00:00 21.4 5 Sur 14 Este 0 997.9 -0.2 25
2019-03-28 12:00:00 19.9 8 Sudeste 17 Sudeste 0 998.1 0 29
2019-03-28 11:00:00 19 5 Sur 12 Este 0 998.4 0.7 28
2019-03-28 10:00:00 17.8 5 Nordeste 18 Este 0 998.1 0.6 29
2019-03-28 09:00:00 16.9 10 Este 17 Este 0 998.1 1 26
2019-03-28 08:00:00 16.4 6 Este 17 Este 0 997.7 0.9 27
2019-03-28 07:00:00 16.6 7 Sudeste 21 Sudeste 0 997.5 0.9 27
2019-03-28 06:00:00 15.7 15 Sudeste 25 Sudeste 0 997.1 1 30
2019-03-28 05:00:00 14.9 15 Sudeste 28 Este 0 996.8 0.8 33
2019-03-28 04:00:00 15.3 9 Sur 40 Este 0 996.6 0.8 30
2019-03-28 03:00:00 14.7 31 Este 43 Este 0 996.1 0.1 31
2019-03-28 02:00:00 14.1 33 Este 49 Este 0 996 0 34
2019-03-28 01:00:00 13.2 37 Este 55 Este 0 995.8 -0.2 34
2019-03-28 00:00:00 12.8 41 Este 58 Este 0 996 -0.2 33
2019-03-27 23:00:00 12.9 40 Este 56 Este 0 996 0.4 35
2019-03-27 22:00:00 13.7 35 Este 51 Este 0 996 0.7 35
2019-03-27 21:00:00 15.1 23 Este 40 Nordeste 0 996.2 0.9 36
2019-03-27 20:00:00 15.4 23 Nordeste 39 Este 0 995.6 0.3 45
2019-03-27 19:00:00 17.3 21 Nordeste 32 Nordeste 0 995.3 -0.5 49
2019-03-27 18:00:00 19.1 19 Nordeste 27 Nordeste 0 995.3 -0.8 44
2019-03-27 17:00:00 19.2 16 Norte 23 Norte 0 995.3 -1.1 43
2019-03-27 16:00:00 20.7 9 Norte 17 Nordeste 0 995.8 -0.6 33
2019-03-27 15:00:00 21.4 6 Noroeste 12 Oeste 0 996.1 -0.2 24
2019-03-27 14:00:00 20.7 5 Noroeste 14 Sur 0 996.4 0.6 21
2019-03-27 13:00:00 22.1 9 Sur 23 Sur 0 996.4 1.1 14
2019-03-27 12:00:00 20.5 10 Sudeste 21 Sudeste 0 996.3 1.4 17
2019-03-27 11:00:00 19.1 8 Sudeste 17 Sudeste 0 995.8 1.6 17
2019-03-27 10:00:00 16.9 5 Sur 19 Sur 0 995.3 1.8 19
2019-03-27 09:00:00 16.6 5 Sudeste 18 Este 0 994.9 1.9 16
2019-03-27 08:00:00 14.2 6 Sudeste 17 Sudeste 0 994.2 1.9 15
2019-03-27 07:00:00 13.9 10 Sudeste 21 Este 0 993.5 1.5 17
2019-03-27 06:00:00 13.9 9 Sudeste 30 Sudeste 0 993 1.1 21
2019-03-27 05:00:00 15.6 22 Este 43 Sudeste 0 992.3 -0.5 14
2019-03-27 04:00:00 15.4 31 Este 45 Este 0 992 -0.3 17
2019-03-27 03:00:00 15.9 31 Este 44 Este 0 991.9 -0.1 15
2019-03-27 02:00:00 15.2 13 Sudeste 39 Sudeste 0 992.8 1.3 23
2019-03-27 01:00:00 14.9 17 Este 42 Sudeste 0 992.3 1.3 28
2019-03-27 00:00:00 15.5 19 Sudeste 50 Este 0 992 1.6 26
2019-03-26 23:00:00 15.4 23 Este 36 Este 0 991.5 2 30
2019-03-26 22:00:00 14.9 22 Este 44 Este 0 991 1.5 35
2019-03-26 21:00:00 14.6 32 Este 48 Este 0 990.4 1.1 40
2019-03-26 20:00:00 15.6 30 Este 45 Este 0 989.5 -0.2 44
2019-03-26 19:00:00 17.5 28 Este 47 Este 0 989.5 -0.9 38
2019-03-26 18:00:00 18.2 19 Este 39 Norte 0 989.3 -1.5 41
2019-03-26 17:00:00 15.5 21 Norte 36 Este 0 989.7 -1.8 61
2019-03-26 16:00:00 21.2 14 Este 38 Este 0 990.4 -1.3 25
2019-03-26 15:00:00 20.3 13 Nordeste 31 Nordeste 0 990.8 -1.1 31
2019-03-26 14:00:00 20.2 13 Este 38 Este 0 991.5 -0.5 27
2019-03-26 13:00:00 18.8 13 Nordeste 35 Este 0 991.7 0.1 31
2019-03-26 12:00:00 16.2 24 Este 40 Este 0 991.9 -0.3 35
2019-03-26 11:00:00 14.5 10 Sudeste 47 Este 0 992 0.5 42
2019-03-26 10:00:00 11.8 32 Este 45 Este 0 991.6 0.9 50
2019-03-26 09:00:00 10.1 25 Este 53 Este 0 992.2 0.6 54
2019-03-26 08:00:00 8.9 35 Este 70 Este 0 991.5 -0.5 56
2019-03-26 07:00:00 9.1 46 Este 74 Este 0 990.7 -1.4 52
2019-03-26 06:00:00 9.4 30 Este 55 Este 0 991.6 -0.9 52
2019-03-26 05:00:00 9.6 29 Este 55 Este 0 992 0.2 50
2019-03-26 04:00:00 10.7 28 Este 57 Este 0 992.1 0 42
2019-03-26 03:00:00 11.4 29 Este 67 Este 0 992.5 0.8 39
2019-03-26 02:00:00 12.2 40 Este 67 Este 0 991.8 0.3 36
2019-03-26 01:00:00 12.3 33 Este 81 Este 0 992.1 0.2 38
2019-03-26 00:00:00 11.8 48 Este 89 Este 0 991.7 0.4 44
2019-03-25 23:00:00 11.8 51 Este 78 Este 0 991.5 -0.3 47
2019-03-25 22:00:00 11.8 39 Este 68 Nordeste 0 991.9 -0.2 52
2019-03-25 21:00:00 12.2 42 Este 72 Este 0 991.3 -1 52
2019-03-25 20:00:00 13.1 22 Nordeste 49 Este 0 991.8 -1 58
2019-03-25 19:00:00 14.6 32 Este 55 Este 0 992.1 -1 58
2019-03-25 18:00:00 16.3 22 Nordeste 40 Norte 0 992.3 -1.5 57
2019-03-25 17:00:00 17.7 14 Nordeste 31 Nordeste 0 992.8 -1.7 53
2019-03-25 16:00:00 19.7 10 Nordeste 36 Este 0 993.1 -1.9 47
2019-03-25 15:00:00 20.9 13 Este 37 Este 0 993.8 -1.4 34
2019-03-25 14:00:00 19.7 19 Este 40 Este 0 994.5 -0.6 38
2019-03-25 13:00:00 18.4 22 Este 38 Este 0 995 0 45
2019-03-25 12:00:00 17.2 24 Este 45 Este 0 995.2 0.7 50
2019-03-25 11:00:00 15.4 30 Este 48 Este 0 995.1 1.1 55
2019-03-25 10:00:00 13.1 35 Este 49 Este 0 995 1.3 62
2019-03-25 09:00:00 11.3 37 Este 56 Este 0 994.5 1.1 68
2019-03-25 08:00:00 10.2 40 Este 57 Este 0 994 0.3 72
2019-03-25 07:00:00 10.3 44 Este 63 Este 0 993.7 -0.4 71
2019-03-25 06:00:00 10.9 46 Este 75 Este 0 993.4 -1.6 67
2019-03-25 05:00:00 10.9 41 Este 62 Este 0 993.7 -1.5 66
2019-03-25 04:00:00 10.9 36 Nordeste 57 Nordeste 0 994.1 -1.2 62
2019-03-25 03:00:00 10 20 Norte 39 Norte 0 995 -0.4 70
2019-03-25 02:00:00 11.1 21 Norte 47 Este 0 995.2 -0.4 63
2019-03-25 01:00:00 12.5 22 Nordeste 51 Este 0 995.3 -0.3 46
2019-03-25 00:00:00 12.7 26 Este 58 Este 0 995.4 0.4 47